sensor_id;sensor_type;location;lat;lon;timestamp;pressure;altitude;pressure_sealevel;temperature;humidity
55687;BME280;41911;52.362;4.978;2023-03-23T00:01:27;100062.50;;;8.89;60.60
55687;BME280;41911;52.362;4.978;2023-03-23T00:01:59;100067.86;;;9.78;59.83
55687;BME280;41911;52.362;4.978;2023-03-23T00:02:31;100062.72;;;9.55;59.76
55687;BME280;41911;52.362;4.978;2023-03-23T00:03:03;100064.46;;;9.23;59.87
55687;BME280;41911;52.362;4.978;2023-03-23T00:03:34;100066.06;;;9.67;60.14
55687;BME280;41911;52.362;4.978;2023-03-23T00:04:05;100073.51;;;9.06;60.91
55687;BME280;41911;52.362;4.978;2023-03-23T00:04:36;100073.56;;;9.16;61.54
55687;BME280;41911;52.362;4.978;2023-03-23T00:05:08;100075.50;;;9.24;61.59
55687;BME280;41911;52.362;4.978;2023-03-23T00:05:39;100075.21;;;9.07;61.27
55687;BME280;41911;52.362;4.978;2023-03-23T00:06:10;100081.53;;;9.38;61.25
55687;BME280;41911;52.362;4.978;2023-03-23T00:06:41;100077.53;;;8.93;61.21
55687;BME280;41911;52.362;4.978;2023-03-23T00:07:13;100072.24;;;9.29;60.94
55687;BME280;41911;52.362;4.978;2023-03-23T00:07:44;100074.03;;;9.80;60.44
55687;BME280;41911;52.362;4.978;2023-03-23T00:08:15;100076.53;;;8.74;60.68
55687;BME280;41911;52.362;4.978;2023-03-23T00:08:47;100073.94;;;9.12;61.59
55687;BME280;41911;52.362;4.978;2023-03-23T00:09:19;100072.68;;;9.18;61.73
55687;BME280;41911;52.362;4.978;2023-03-23T00:09:50;100066.57;;;9.38;60.96
55687;BME280;41911;52.362;4.978;2023-03-23T00:17:02;100069.48;;;9.73;59.28
55687;BME280;41911;52.362;4.978;2023-03-23T00:17:34;100067.35;;;9.82;58.95
55687;BME280;41911;52.362;4.978;2023-03-23T00:18:05;100069.91;;;9.83;59.31
55687;BME280;41911;52.362;4.978;2023-03-23T00:18:36;100065.79;;;10.18;59.37
55687;BME280;41911;52.362;4.978;2023-03-23T00:19:10;100072.85;;;9.95;59.52
55687;BME280;41911;52.362;4.978;2023-03-23T00:19:41;100072.70;;;9.08;60.05
55687;BME280;41911;52.362;4.978;2023-03-23T00:20:12;100071.78;;;9.45;60.03
55687;BME280;41911;52.362;4.978;2023-03-23T00:20:43;100071.25;;;9.25;60.06
55687;BME280;41911;52.362;4.978;2023-03-23T00:21:14;100073.09;;;9.36;59.54
55687;BME280;41911;52.362;4.978;2023-03-23T00:21:50;100075.05;;;9.91;59.89
55687;BME280;41911;52.362;4.978;2023-03-23T00:22:21;100075.41;;;9.81;59.61
55687;BME280;41911;52.362;4.978;2023-03-23T00:22:52;100072.18;;;9.67;59.61
55687;BME280;41911;52.362;4.978;2023-03-23T00:23:25;100068.58;;;9.54;59.58
55687;BME280;41911;52.362;4.978;2023-03-23T00:23:56;100072.17;;;9.11;60.03
55687;BME280;41911;52.362;4.978;2023-03-23T00:24:27;100078.18;;;9.68;59.67
55687;BME280;41911;52.362;4.978;2023-03-23T00:24:58;100075.19;;;9.79;59.94
55687;BME280;41911;52.362;4.978;2023-03-23T00:25:29;100073.20;;;9.84;59.63
55687;BME280;41911;52.362;4.978;2023-03-23T00:26:00;100077.36;;;9.72;59.47
55687;BME280;41911;52.362;4.978;2023-03-23T00:27:02;100078.34;;;8.88;60.24
55687;BME280;41911;52.362;4.978;2023-03-23T00:27:38;100074.83;;;9.37;60.29
55687;BME280;41911;52.362;4.978;2023-03-23T00:28:09;100080.11;;;9.34;60.85
55687;BME280;41911;52.362;4.978;2023-03-23T00:28:40;100075.72;;;9.61;60.23
55687;BME280;41911;52.362;4.978;2023-03-23T00:29:13;100068.51;;;9.74;59.62
55687;BME280;41911;52.362;4.978;2023-03-23T00:29:45;100071.71;;;9.56;59.58
55687;BME280;41911;52.362;4.978;2023-03-23T00:30:21;100069.61;;;9.83;58.85
55687;BME280;41911;52.362;4.978;2023-03-23T00:30:56;100070.92;;;9.94;59.42
55687;BME280;41911;52.362;4.978;2023-03-23T00:31:28;100075.73;;;9.61;58.99
55687;BME280;41911;52.362;4.978;2023-03-23T00:32:00;100069.23;;;9.45;59.34
55687;BME280;41911;52.362;4.978;2023-03-23T00:32:31;100072.34;;;9.14;59.68
55687;BME280;41911;52.362;4.978;2023-03-23T00:33:02;100070.89;;;9.68;59.49
55687;BME280;41911;52.362;4.978;2023-03-23T00:33:36;100066.59;;;10.04;59.16
55687;BME280;41911;52.362;4.978;2023-03-23T00:34:09;100059.86;;;9.74;59.29
55687;BME280;41911;52.362;4.978;2023-03-23T00:34:40;100057.12;;;10.00;58.96
55687;BME280;41911;52.362;4.978;2023-03-23T00:35:11;100061.19;;;9.94;58.63
55687;BME280;41911;52.362;4.978;2023-03-23T00:35:42;100062.30;;;9.74;58.48
55687;BME280;41911;52.362;4.978;2023-03-23T00:36:14;100067.49;;;9.72;58.62
55687;BME280;41911;52.362;4.978;2023-03-23T00:36:45;100063.49;;;9.55;58.78
55687;BME280;41911;52.362;4.978;2023-03-23T00:37:17;100062.66;;;9.64;58.67
55687;BME280;41911;52.362;4.978;2023-03-23T00:37:48;100059.59;;;9.66;58.50
55687;BME280;41911;52.362;4.978;2023-03-23T00:38:20;100061.69;;;9.36;59.05
55687;BME280;41911;52.362;4.978;2023-03-23T00:38:51;100055.01;;;9.53;59.13
55687;BME280;41911;52.362;4.978;2023-03-23T00:39:22;100051.54;;;9.28;59.72
55687;BME280;41911;52.362;4.978;2023-03-23T00:39:54;100060.13;;;9.86;58.95
55687;BME280;41911;52.362;4.978;2023-03-23T00:40:25;100055.23;;;9.67;59.00
55687;BME280;41911;52.362;4.978;2023-03-23T00:40:56;100054.89;;;9.73;58.88
55687;BME280;41911;52.362;4.978;2023-03-23T00:41:27;100052.06;;;9.31;58.85
55687;BME280;41911;52.362;4.978;2023-03-23T00:41:58;100052.34;;;9.79;58.85
55687;BME280;41911;52.362;4.978;2023-03-23T00:42:29;100050.77;;;9.66;58.47
55687;BME280;41911;52.362;4.978;2023-03-23T00:43:00;100051.04;;;9.83;58.03
55687;BME280;41911;52.362;4.978;2023-03-23T00:43:32;100048.01;;;9.89;58.04
55687;BME280;41911;52.362;4.978;2023-03-23T00:44:03;100052.84;;;9.89;58.89
55687;BME280;41911;52.362;4.978;2023-03-23T00:44:35;100049.75;;;9.80;58.61
55687;BME280;41911;52.362;4.978;2023-03-23T00:45:07;100053.00;;;9.88;58.13
55687;BME280;41911;52.362;4.978;2023-03-23T00:45:37;100046.50;;;10.01;57.62
55687;BME280;41911;52.362;4.978;2023-03-23T00:46:09;100049.65;;;9.96;57.48
55687;BME280;41911;52.362;4.978;2023-03-23T00:46:40;100044.56;;;9.79;57.62
55687;BME280;41911;52.362;4.978;2023-03-23T00:47:11;100041.46;;;9.79;57.89
55687;BME280;41911;52.362;4.978;2023-03-23T00:47:42;100042.06;;;9.70;57.93
55687;BME280;41911;52.362;4.978;2023-03-23T00:48:14;100043.26;;;10.33;57.80
55687;BME280;41911;52.362;4.978;2023-03-23T00:48:45;100045.22;;;10.31;58.00
55687;BME280;41911;52.362;4.978;2023-03-23T00:49:18;100043.25;;;9.50;58.30
55687;BME280;41911;52.362;4.978;2023-03-23T00:49:49;100045.07;;;9.86;57.91
55687;BME280;41911;52.362;4.978;2023-03-23T00:50:20;100047.10;;;9.20;59.21
55687;BME280;41911;52.362;4.978;2023-03-23T00:50:51;100047.36;;;9.32;59.00
55687;BME280;41911;52.362;4.978;2023-03-23T00:51:23;100049.72;;;9.51;58.87
55687;BME280;41911;52.362;4.978;2023-03-23T00:51:57;100050.28;;;9.06;59.53
55687;BME280;41911;52.362;4.978;2023-03-23T00:52:28;100042.30;;;9.55;59.47
55687;BME280;41911;52.362;4.978;2023-03-23T00:52:59;100046.79;;;9.80;59.17
55687;BME280;41911;52.362;4.978;2023-03-23T00:53:30;100044.36;;;9.76;58.56
55687;BME280;41911;52.362;4.978;2023-03-23T00:54:01;100045.06;;;9.61;58.18
55687;BME280;41911;52.362;4.978;2023-03-23T00:54:32;100048.18;;;9.42;58.73
55687;BME280;41911;52.362;4.978;2023-03-23T00:55:04;100044.09;;;9.05;59.49
55687;BME280;41911;52.362;4.978;2023-03-23T00:55:35;100040.74;;;9.29;59.47
55687;BME280;41911;52.362;4.978;2023-03-23T00:56:07;100041.41;;;9.49;59.31
55687;BME280;41911;52.362;4.978;2023-03-23T00:56:38;100036.32;;;9.70;58.72
55687;BME280;41911;52.362;4.978;2023-03-23T00:57:14;100029.10;;;9.12;58.63
55687;BME280;41911;52.362;4.978;2023-03-23T00:57:45;100040.74;;;9.11;59.18
55687;BME280;41911;52.362;4.978;2023-03-23T00:58:16;100030.63;;;9.95;58.27
55687;BME280;41911;52.362;4.978;2023-03-23T00:58:47;100031.55;;;10.26;58.20
55687;BME280;41911;52.362;4.978;2023-03-23T00:59:18;100034.87;;;10.34;58.11
55687;BME280;41911;52.362;4.978;2023-03-23T00:59:50;100030.23;;;9.97;57.57
55687;BME280;41911;52.362;4.978;2023-03-23T01:00:21;100032.18;;;9.65;57.79
55687;BME280;41911;52.362;4.978;2023-03-23T01:00:52;100026.75;;;9.86;57.82
55687;BME280;41911;52.362;4.978;2023-03-23T01:01:23;100031.57;;;9.95;57.86
55687;BME280;41911;52.362;4.978;2023-03-23T01:01:54;100026.88;;;9.74;58.14
55687;BME280;41911;52.362;4.978;2023-03-23T01:02:25;100027.35;;;9.92;57.95
55687;BME280;41911;52.362;4.978;2023-03-23T01:02:56;100027.80;;;10.28;57.76
55687;BME280;41911;52.362;4.978;2023-03-23T01:03:27;100029.68;;;9.92;57.42
55687;BME280;41911;52.362;4.978;2023-03-23T01:03:58;100028.65;;;9.73;57.36
55687;BME280;41911;52.362;4.978;2023-03-23T01:04:29;100032.46;;;10.39;57.35
55687;BME280;41911;52.362;4.978;2023-03-23T01:05:00;100032.91;;;9.74;57.41
55687;BME280;41911;52.362;4.978;2023-03-23T01:05:34;100031.77;;;9.75;57.95
55687;BME280;41911;52.362;4.978;2023-03-23T01:06:07;100029.98;;;9.75;57.28
55687;BME280;41911;52.362;4.978;2023-03-23T01:06:40;100032.98;;;10.15;57.18
55687;BME280;41911;52.362;4.978;2023-03-23T01:07:12;100030.56;;;9.64;57.57
55687;BME280;41911;52.362;4.978;2023-03-23T01:07:43;100038.36;;;10.07;57.07
55687;BME280;41911;52.362;4.978;2023-03-23T01:08:14;100037.80;;;10.05;56.75
55687;BME280;41911;52.362;4.978;2023-03-23T01:08:45;100039.34;;;10.13;56.33
55687;BME280;41911;52.362;4.978;2023-03-23T01:09:17;100044.27;;;10.34;56.24
55687;BME280;41911;52.362;4.978;2023-03-23T01:09:48;100043.39;;;10.18;56.36
55687;BME280;41911;52.362;4.978;2023-03-23T01:10:19;100047.28;;;10.11;56.47
55687;BME280;41911;52.362;4.978;2023-03-23T01:10:50;100045.88;;;10.28;56.38
55687;BME280;41911;52.362;4.978;2023-03-23T01:11:22;100043.65;;;9.78;56.59
55687;BME280;41911;52.362;4.978;2023-03-23T01:11:53;100048.78;;;10.26;56.63
55687;BME280;41911;52.362;4.978;2023-03-23T01:12:24;100046.99;;;10.22;56.58
55687;BME280;41911;52.362;4.978;2023-03-23T01:12:55;100043.28;;;10.85;56.38
55687;BME280;41911;52.362;4.978;2023-03-23T01:13:26;100042.43;;;10.37;56.10
55687;BME280;41911;52.362;4.978;2023-03-23T01:13:57;100032.34;;;10.49;55.91
55687;BME280;41911;52.362;4.978;2023-03-23T01:14:28;100039.29;;;10.08;56.75
55687;BME280;41911;52.362;4.978;2023-03-23T01:14:59;100035.42;;;10.39;55.88
55687;BME280;41911;52.362;4.978;2023-03-23T01:15:30;100040.24;;;10.34;56.25
55687;BME280;41911;52.362;4.978;2023-03-23T01:16:02;100033.64;;;9.97;56.18
55687;BME280;41911;52.362;4.978;2023-03-23T01:16:33;100040.85;;;10.33;55.73
55687;BME280;41911;52.362;4.978;2023-03-23T01:17:09;100034.00;;;10.15;56.04
55687;BME280;41911;52.362;4.978;2023-03-23T01:17:41;100038.60;;;10.56;55.75
55687;BME280;41911;52.362;4.978;2023-03-23T01:18:12;100033.93;;;10.39;55.94
55687;BME280;41911;52.362;4.978;2023-03-23T01:18:43;100035.69;;;10.28;56.12
55687;BME280;41911;52.362;4.978;2023-03-23T01:19:14;100034.14;;;10.40;56.02
55687;BME280;41911;52.362;4.978;2023-03-23T01:19:45;100032.89;;;10.49;55.91
55687;BME280;41911;52.362;4.978;2023-03-23T01:20:16;100035.43;;;10.41;56.03
55687;BME280;41911;52.362;4.978;2023-03-23T01:20:47;100034.58;;;10.41;55.87
55687;BME280;41911;52.362;4.978;2023-03-23T01:21:20;100026.80;;;10.19;56.18
55687;BME280;41911;52.362;4.978;2023-03-23T01:21:51;100028.04;;;9.96;56.58
55687;BME280;41911;52.362;4.978;2023-03-23T01:22:23;100019.66;;;9.88;56.60
55687;BME280;41911;52.362;4.978;2023-03-23T01:22:54;100017.71;;;10.00;56.67
55687;BME280;41911;52.362;4.978;2023-03-23T01:23:25;100016.52;;;9.84;56.83
55687;BME280;41911;52.362;4.978;2023-03-23T01:24:02;100008.61;;;9.84;57.00
55687;BME280;41911;52.362;4.978;2023-03-23T01:24:33;100012.07;;;9.97;56.80
55687;BME280;41911;52.362;4.978;2023-03-23T01:25:05;100016.27;;;10.11;56.45
55687;BME280;41911;52.362;4.978;2023-03-23T01:25:37;100015.68;;;10.24;56.73
55687;BME280;41911;52.362;4.978;2023-03-23T01:26:10;100015.26;;;10.21;56.73
55687;BME280;41911;52.362;4.978;2023-03-23T01:26:41;100009.88;;;10.09;56.39
55687;BME280;41911;52.362;4.978;2023-03-23T01:27:13;100005.22;;;10.51;56.32
55687;BME280;41911;52.362;4.978;2023-03-23T01:27:44;100004.39;;;10.33;55.73
55687;BME280;41911;52.362;4.978;2023-03-23T01:28:15;99997.52;;;10.12;56.14
55687;BME280;41911;52.362;4.978;2023-03-23T01:28:46;99999.13;;;10.40;56.04
55687;BME280;41911;52.362;4.978;2023-03-23T01:29:17;100003.36;;;10.35;55.95
55687;BME280;41911;52.362;4.978;2023-03-23T01:29:49;99998.38;;;10.12;56.19
55687;BME280;41911;52.362;4.978;2023-03-23T01:30:20;100004.23;;;10.29;55.92
55687;BME280;41911;52.362;4.978;2023-03-23T01:30:51;100003.45;;;10.00;56.42
55687;BME280;41911;52.362;4.978;2023-03-23T01:31:25;100008.64;;;10.04;56.31
55687;BME280;41911;52.362;4.978;2023-03-23T01:31:56;100001.78;;;10.12;56.12
55687;BME280;41911;52.362;4.978;2023-03-23T01:32:28;100006.29;;;10.37;55.81
55687;BME280;41911;52.362;4.978;2023-03-23T01:33:00;100004.27;;;10.17;56.00
55687;BME280;41911;52.362;4.978;2023-03-23T01:33:31;100005.13;;;10.22;55.98
55687;BME280;41911;52.362;4.978;2023-03-23T01:34:03;100008.74;;;10.28;56.03
55687;BME280;41911;52.362;4.978;2023-03-23T01:34:34;99998.20;;;10.09;55.99
55687;BME280;41911;52.362;4.978;2023-03-23T01:35:05;100003.45;;;10.21;55.96
55687;BME280;41911;52.362;4.978;2023-03-23T01:35:37;100001.90;;;9.96;56.32
55687;BME280;41911;52.362;4.978;2023-03-23T01:36:12;100005.42;;;10.21;55.99
55687;BME280;41911;52.362;4.978;2023-03-23T01:36:44;100001.20;;;10.29;55.60
55687;BME280;41911;52.362;4.978;2023-03-23T01:37:15;99997.10;;;10.63;55.33
55687;BME280;41911;52.362;4.978;2023-03-23T01:37:46;100000.44;;;10.71;55.23
55687;BME280;41911;52.362;4.978;2023-03-23T01:38:17;99994.87;;;10.70;54.87
55687;BME280;41911;52.362;4.978;2023-03-23T01:38:49;99999.59;;;10.66;55.07
55687;BME280;41911;52.362;4.978;2023-03-23T01:39:20;99998.93;;;10.50;55.41
55687;BME280;41911;52.362;4.978;2023-03-23T01:39:52;100005.63;;;10.61;55.48
55687;BME280;41911;52.362;4.978;2023-03-23T01:40:28;99997.21;;;9.77;56.43
55687;BME280;41911;52.362;4.978;2023-03-23T01:40:59;100002.00;;;9.96;56.44
55687;BME280;41911;52.362;4.978;2023-03-23T01:41:30;100005.16;;;10.16;55.92
55687;BME280;41911;52.362;4.978;2023-03-23T01:42:02;99996.31;;;9.99;56.10
55687;BME280;41911;52.362;4.978;2023-03-23T01:42:35;100000.43;;;9.71;56.61
55687;BME280;41911;52.362;4.978;2023-03-23T01:43:10;99994.53;;;10.01;56.07
55687;BME280;41911;52.362;4.978;2023-03-23T01:44:03;99993.74;;;10.26;55.88
55687;BME280;41911;52.362;4.978;2023-03-23T01:45:39;99988.43;;;10.49;55.42
55687;BME280;41911;52.362;4.978;2023-03-23T01:46:11;99994.46;;;10.12;55.55
55687;BME280;41911;52.362;4.978;2023-03-23T01:46:42;99997.51;;;10.00;55.91
55687;BME280;41911;52.362;4.978;2023-03-23T01:47:14;99997.65;;;10.25;55.50
55687;BME280;41911;52.362;4.978;2023-03-23T01:47:45;99999.92;;;9.97;56.40
55687;BME280;41911;52.362;4.978;2023-03-23T01:48:20;99996.27;;;10.20;56.02
55687;BME280;41911;52.362;4.978;2023-03-23T01:48:54;99993.38;;;10.57;55.88
55687;BME280;41911;52.362;4.978;2023-03-23T01:49:30;99994.27;;;10.30;55.45
55687;BME280;41911;52.362;4.978;2023-03-23T01:50:03;99988.79;;;10.00;55.91
55687;BME280;41911;52.362;4.978;2023-03-23T01:50:38;99994.21;;;9.92;56.23
55687;BME280;41911;52.362;4.978;2023-03-23T01:51:15;100000.15;;;9.86;56.39
55687;BME280;41911;52.362;4.978;2023-03-23T01:51:48;99997.22;;;9.94;56.42
55687;BME280;41911;52.362;4.978;2023-03-23T01:52:23;100000.05;;;9.84;56.30
55687;BME280;41911;52.362;4.978;2023-03-23T01:52:58;100003.74;;;9.92;55.98
55687;BME280;41911;52.362;4.978;2023-03-23T01:53:35;100001.23;;;9.76;56.39
55687;BME280;41911;52.362;4.978;2023-03-23T01:54:11;99994.32;;;10.00;55.92
55687;BME280;41911;52.362;4.978;2023-03-23T01:54:44;100000.26;;;10.47;55.53
55687;BME280;41911;52.362;4.978;2023-03-23T01:55:17;100002.17;;;10.18;55.26
55687;BME280;41911;52.362;4.978;2023-03-23T01:55:53;100004.21;;;10.35;55.30
55687;BME280;41911;52.362;4.978;2023-03-23T01:56:36;100000.83;;;10.06;55.79
55687;BME280;41911;52.362;4.978;2023-03-23T01:57:12;99994.29;;;10.11;55.69
55687;BME280;41911;52.362;4.978;2023-03-23T01:57:44;99997.55;;;10.16;55.78
55687;BME280;41911;52.362;4.978;2023-03-23T01:58:17;99995.47;;;9.96;56.13
55687;BME280;41911;52.362;4.978;2023-03-23T01:58:50;99992.22;;;9.81;56.25
55687;BME280;41911;52.362;4.978;2023-03-23T01:59:23;99988.83;;;9.83;56.49
55687;BME280;41911;52.362;4.978;2023-03-23T01:59:55;99989.34;;;9.62;56.71
55687;BME280;41911;52.362;4.978;2023-03-23T02:00:28;99989.04;;;9.45;56.07
55687;BME280;41911;52.362;4.978;2023-03-23T02:01:03;99995.85;;;9.96;55.63
55687;BME280;41911;52.362;4.978;2023-03-23T02:01:36;99991.33;;;9.52;56.29
55687;BME280;41911;52.362;4.978;2023-03-23T02:02:07;99988.92;;;9.56;56.72
55687;BME280;41911;52.362;4.978;2023-03-23T02:02:38;99992.06;;;9.72;56.32
55687;BME280;41911;52.362;4.978;2023-03-23T02:03:09;99992.63;;;10.27;56.62
55687;BME280;41911;52.362;4.978;2023-03-23T02:03:42;99985.57;;;10.02;56.29
55687;BME280;41911;52.362;4.978;2023-03-23T02:04:15;99989.25;;;10.06;56.13
55687;BME280;41911;52.362;4.978;2023-03-23T02:04:47;99987.73;;;10.09;56.40
55687;BME280;41911;52.362;4.978;2023-03-23T02:05:24;99982.64;;;10.01;56.11
55687;BME280;41911;52.362;4.978;2023-03-23T02:05:59;99994.94;;;9.92;55.81
55687;BME280;41911;52.362;4.978;2023-03-23T02:06:30;99981.82;;;9.45;56.57
55687;BME280;41911;52.362;4.978;2023-03-23T02:07:02;99980.57;;;9.66;56.54
55687;BME280;41911;52.362;4.978;2023-03-23T02:07:33;99982.80;;;9.77;56.36
55687;BME280;41911;52.362;4.978;2023-03-23T02:08:06;99978.83;;;9.73;56.52
55687;BME280;41911;52.362;4.978;2023-03-23T02:08:38;99978.27;;;9.97;55.88
55687;BME280;41911;52.362;4.978;2023-03-23T02:09:12;99968.82;;;9.52;56.68
55687;BME280;41911;52.362;4.978;2023-03-23T02:09:43;99983.25;;;9.82;56.28
55687;BME280;41911;52.362;4.978;2023-03-23T02:10:14;99971.30;;;9.75;56.24
55687;BME280;41911;52.362;4.978;2023-03-23T02:10:45;99980.51;;;10.07;56.25
55687;BME280;41911;52.362;4.978;2023-03-23T02:11:17;99981.97;;;9.95;55.94
55687;BME280;41911;52.362;4.978;2023-03-23T02:11:49;99974.38;;;9.49;56.65
55687;BME280;41911;52.362;4.978;2023-03-23T02:12:20;99975.94;;;9.53;56.81
55687;BME280;41911;52.362;4.978;2023-03-23T02:12:52;99977.97;;;9.97;56.34
55687;BME280;41911;52.362;4.978;2023-03-23T02:13:23;99966.34;;;9.61;56.60
55687;BME280;41911;52.362;4.978;2023-03-23T02:13:54;99975.39;;;9.68;56.53
55687;BME280;41911;52.362;4.978;2023-03-23T02:14:27;99973.17;;;10.08;56.11
55687;BME280;41911;52.362;4.978;2023-03-23T02:14:58;99971.18;;;9.61;56.59
55687;BME280;41911;52.362;4.978;2023-03-23T02:15:38;99961.18;;;9.29;57.01
55687;BME280;41911;52.362;4.978;2023-03-23T02:16:19;99979.83;;;9.69;56.14
55687;BME280;41911;52.362;4.978;2023-03-23T02:16:59;99977.79;;;9.73;55.84
55687;BME280;41911;52.362;4.978;2023-03-23T02:17:40;99982.68;;;9.70;56.39
55687;BME280;41911;52.362;4.978;2023-03-23T02:18:20;99984.11;;;9.63;56.53
55687;BME280;41911;52.362;4.978;2023-03-23T02:19:10;99974.67;;;9.75;56.07
55687;BME280;41911;52.362;4.978;2023-03-23T02:20:08;99971.00;;;9.93;55.87
55687;BME280;41911;52.362;4.978;2023-03-23T02:21:04;99976.41;;;10.21;55.49
55687;BME280;41911;52.362;4.978;2023-03-23T02:22:57;99971.64;;;9.20;57.08
55687;BME280;41911;52.362;4.978;2023-03-23T02:23:48;99975.72;;;9.33;57.09
55687;BME280;41911;52.362;4.978;2023-03-23T02:24:50;99971.53;;;9.77;56.96
55687;BME280;41911;52.362;4.978;2023-03-23T02:25:37;99973.86;;;9.64;56.53
55687;BME280;41911;52.362;4.978;2023-03-23T02:26:27;99974.36;;;9.98;56.25
55687;BME280;41911;52.362;4.978;2023-03-23T02:27:08;99974.67;;;9.36;57.18
55687;BME280;41911;52.362;4.978;2023-03-23T02:28:07;99972.03;;;9.84;57.12
55687;BME280;41911;52.362;4.978;2023-03-23T02:29:02;99971.10;;;9.53;56.89
55687;BME280;41911;52.362;4.978;2023-03-23T02:29:51;99971.93;;;9.58;56.54
55687;BME280;41911;52.362;4.978;2023-03-23T02:30:39;99972.89;;;9.16;56.97
55687;BME280;41911;52.362;4.978;2023-03-23T02:31:28;99967.01;;;9.62;56.60
55687;BME280;41911;52.362;4.978;2023-03-23T02:32:12;99971.87;;;10.10;56.37
55687;BME280;41911;52.362;4.978;2023-03-23T02:33:11;99957.98;;;10.31;55.92
55687;BME280;41911;52.362;4.978;2023-03-23T02:33:47;99955.32;;;9.97;56.14
55687;BME280;41911;52.362;4.978;2023-03-23T02:34:24;99957.42;;;9.78;56.30
55687;BME280;41911;52.362;4.978;2023-03-23T02:35:00;99949.82;;;9.60;56.48
55687;BME280;41911;52.362;4.978;2023-03-23T02:35:36;99951.48;;;9.17;57.43
55687;BME280;41911;52.362;4.978;2023-03-23T02:36:18;99951.01;;;9.36;57.23
55687;BME280;41911;52.362;4.978;2023-03-23T02:36:53;99952.95;;;9.62;57.62
55687;BME280;41911;52.362;4.978;2023-03-23T02:37:30;99951.37;;;9.65;57.74
55687;BME280;41911;52.362;4.978;2023-03-23T02:38:08;99937.05;;;10.08;56.71
55687;BME280;41911;52.362;4.978;2023-03-23T02:38:46;99958.01;;;9.77;57.45
55687;BME280;41911;52.362;4.978;2023-03-23T02:39:25;99956.33;;;9.84;57.48
55687;BME280;41911;52.362;4.978;2023-03-23T02:40:02;99960.86;;;9.39;57.44
55687;BME280;41911;52.362;4.978;2023-03-23T02:40:40;99957.96;;;9.24;58.00
55687;BME280;41911;52.362;4.978;2023-03-23T02:41:11;99963.13;;;9.31;58.22
55687;BME280;41911;52.362;4.978;2023-03-23T02:41:49;99952.71;;;9.36;58.33
55687;BME280;41911;52.362;4.978;2023-03-23T02:42:26;99961.32;;;9.32;58.37
55687;BME280;41911;52.362;4.978;2023-03-23T02:42:59;99959.46;;;9.35;57.99
55687;BME280;41911;52.362;4.978;2023-03-23T02:43:40;99960.06;;;9.39;58.18
55687;BME280;41911;52.362;4.978;2023-03-23T02:44:14;99965.27;;;9.43;58.23
55687;BME280;41911;52.362;4.978;2023-03-23T02:44:46;99968.48;;;9.43;58.25
55687;BME280;41911;52.362;4.978;2023-03-23T02:45:20;99963.10;;;9.13;58.48
55687;BME280;41911;52.362;4.978;2023-03-23T02:45:53;99966.11;;;8.80;58.89
55687;BME280;41911;52.362;4.978;2023-03-23T02:46:25;99966.82;;;9.26;58.51
55687;BME280;41911;52.362;4.978;2023-03-23T02:46:59;99968.59;;;8.65;59.24
55687;BME280;41911;52.362;4.978;2023-03-23T02:47:32;99956.63;;;8.62;59.87
55687;BME280;41911;52.362;4.978;2023-03-23T02:48:08;99954.93;;;9.07;59.04
55687;BME280;41911;52.362;4.978;2023-03-23T02:48:42;99958.84;;;9.47;58.59
55687;BME280;41911;52.362;4.978;2023-03-23T02:49:15;99947.07;;;9.49;58.27
55687;BME280;41911;52.362;4.978;2023-03-23T02:49:48;99956.18;;;9.34;58.49
55687;BME280;41911;52.362;4.978;2023-03-23T02:50:24;99957.74;;;9.17;58.12
55687;BME280;41911;52.362;4.978;2023-03-23T02:50:59;99951.89;;;9.49;58.22
55687;BME280;41911;52.362;4.978;2023-03-23T02:51:34;99963.38;;;9.33;58.11
55687;BME280;41911;52.362;4.978;2023-03-23T02:52:09;99950.61;;;9.38;58.36
55687;BME280;41911;52.362;4.978;2023-03-23T02:52:42;99957.75;;;9.29;58.60
55687;BME280;41911;52.362;4.978;2023-03-23T02:53:19;99957.99;;;9.32;58.72
55687;BME280;41911;52.362;4.978;2023-03-23T02:53:55;99955.36;;;9.49;58.32
55687;BME280;41911;52.362;4.978;2023-03-23T02:54:27;99958.16;;;8.85;57.49
55687;BME280;41911;52.362;4.978;2023-03-23T02:55:00;99951.00;;;9.69;57.84
55687;BME280;41911;52.362;4.978;2023-03-23T02:55:34;99958.98;;;9.18;58.25
55687;BME280;41911;52.362;4.978;2023-03-23T02:56:06;99956.04;;;9.10;59.11
55687;BME280;41911;52.362;4.978;2023-03-23T02:56:40;99951.77;;;9.26;58.81
55687;BME280;41911;52.362;4.978;2023-03-23T02:57:12;99949.84;;;9.59;58.29
55687;BME280;41911;52.362;4.978;2023-03-23T02:57:44;99963.11;;;9.25;58.76
55687;BME280;41911;52.362;4.978;2023-03-23T02:58:16;99963.92;;;9.00;59.13
55687;BME280;41911;52.362;4.978;2023-03-23T02:58:47;99959.79;;;8.68;59.73
55687;BME280;41911;52.362;4.978;2023-03-23T02:59:18;99968.59;;;9.06;59.20
55687;BME280;41911;52.362;4.978;2023-03-23T02:59:49;99960.67;;;9.04;59.30
55687;BME280;41911;52.362;4.978;2023-03-23T03:00:21;99954.55;;;8.75;59.77
55687;BME280;41911;52.362;4.978;2023-03-23T03:00:53;99949.82;;;9.08;59.46
55687;BME280;41911;52.362;4.978;2023-03-23T03:02:01;99951.55;;;8.83;59.96
55687;BME280;41911;52.362;4.978;2023-03-23T03:02:38;99957.46;;;8.82;60.27
55687;BME280;41911;52.362;4.978;2023-03-23T03:03:13;99956.40;;;8.86;60.03
55687;BME280;41911;52.362;4.978;2023-03-23T03:03:45;99960.59;;;9.41;59.26
55687;BME280;41911;52.362;4.978;2023-03-23T03:04:19;99966.19;;;9.41;58.88
55687;BME280;41911;52.362;4.978;2023-03-23T03:04:56;99950.26;;;8.50;59.92
55687;BME280;41911;52.362;4.978;2023-03-23T03:05:36;99958.15;;;8.94;59.83
55687;BME280;41911;52.362;4.978;2023-03-23T03:06:23;99954.42;;;8.83;60.48
55687;BME280;41911;52.362;4.978;2023-03-23T03:07:16;99941.03;;;8.87;61.14
55687;BME280;41911;52.362;4.978;2023-03-23T03:08:02;99943.37;;;9.16;60.91
55687;BME280;41911;52.362;4.978;2023-03-23T03:08:45;99953.26;;;9.69;60.33
55687;BME280;41911;52.362;4.978;2023-03-23T03:09:26;99954.55;;;9.34;59.82
55687;BME280;41911;52.362;4.978;2023-03-23T03:10:09;99953.77;;;9.17;60.39
55687;BME280;41911;52.362;4.978;2023-03-23T03:10:49;99948.75;;;8.97;60.87
55687;BME280;41911;52.362;4.978;2023-03-23T03:11:24;99948.24;;;9.32;60.24